Time;durP1;ratioP1;P1;durP2;ratioP2;P2;SDS_P1;SDS_P2;PMS_P1;PMS_P2;Temp;Humidity;BMP_temperature;BMP_pressure;BME280_temperature;BME280_humidity;BME280_pressure;Samples;Min_cycle;Max_cycle;Signal;HPM_P1;HPM_P2
2021/07/29 00:01:19;;;;;;;8.60;3.67;;;;;;;19.27;64.12;96551.72;5071516;28;20324;-68
2021/07/29 00:03:45;;;;;;;6.97;3.97;;;;;;;19.42;63.56;96545.19;5071142;28;20178;-69
2021/07/29 00:06:15;;;;;;;4.23;3.50;;;;;;;19.34;63.51;96549.78;5071293;28;20436;-69
2021/07/29 00:08:41;;;;;;;4.50;3.67;;;;;;;19.30;63.60;96555.75;5072074;28;20192;-69
2021/07/29 00:11:06;;;;;;;4.17;3.77;;;;;;;19.27;63.53;96554.38;5072140;28;20424;-69
2021/07/29 00:13:32;;;;;;;4.67;3.60;;;;;;;19.18;63.75;96558.38;5071926;28;20202;-69
2021/07/29 00:16:02;;;;;;;5.90;3.80;;;;;;;19.24;63.45;96548.69;5067596;28;20179;-69
2021/07/29 00:21:11;;;;;;;5.63;3.80;;;;;;;19.23;63.39;96541.75;5063074;28;20541;-69
2021/07/29 00:23:37;;;;;;;3.83;3.43;;;;;;;19.22;63.26;96551.56;5071122;28;20948;-68
2021/07/29 00:26:02;;;;;;;4.00;3.63;;;;;;;19.21;63.23;96552.63;5071262;28;20186;-69
2021/07/29 00:28:28;;;;;;;5.00;3.40;;;;;;;19.20;63.14;96545.69;5061217;28;20265;-68
2021/07/29 00:30:54;;;;;;;4.03;3.40;;;;;;;19.23;62.85;96547.88;5069646;28;20274;-68
2021/07/29 00:33:19;;;;;;;3.17;2.87;;;;;;;18.95;63.30;96549.25;5071064;28;20214;-69
2021/07/29 00:35:45;;;;;;;4.47;3.60;;;;;;;18.99;63.25;96552.25;5071249;28;20183;-67
2021/07/29 00:38:10;;;;;;;4.23;3.00;;;;;;;19.05;62.94;96546.03;5070909;28;20198;-68
2021/07/29 00:40:36;;;;;;;4.33;3.13;;;;;;;19.14;62.43;96547.38;5068113;28;20217;-68
2021/07/29 00:43:01;;;;;;;4.60;2.90;;;;;;;19.16;62.26;96547.97;5062541;28;20754;-69
2021/07/29 00:45:27;;;;;;;4.13;3.43;;;;;;;19.16;62.42;96547.97;5067289;28;20183;-68
2021/07/29 00:47:53;;;;;;;3.40;3.10;;;;;;;19.17;62.25;96544.25;5066588;28;20277;-68
2021/07/29 00:50:19;;;;;;;6.03;3.47;;;;;;;19.15;62.28;96542.88;5070696;28;20182;-69
2021/07/29 00:52:47;;;;;;;4.53;3.40;;;;;;;19.16;62.53;96547.16;5071006;28;20444;-68
2021/07/29 00:55:13;;;;;;;4.20;3.80;;;;;;;19.08;62.87;96550.91;5069428;28;20282;-68
2021/07/29 00:57:39;;;;;;;6.97;3.60;;;;;;;19.02;63.27;96546.50;5059409;28;20959;-67
2021/07/29 01:00:05;;;;;;;5.10;3.93;;;;;;;19.04;63.16;96541.78;5070484;28;20459;-68
2021/07/29 01:02:31;;;;;;;5.83;3.80;;;;;;;18.99;63.20;96541.66;5071024;28;20202;-68
2021/07/29 01:04:57;;;;;;;7.90;3.53;;;;;;;18.92;63.40;96546.16;5061947;28;20545;-69
2021/07/29 01:07:22;;;;;;;4.40;4.00;;;;;;;18.88;63.63;96549.28;5068552;28;20626;-68
2021/07/29 01:09:48;;;;;;;4.80;3.77;;;;;;;18.81;63.66;96540.56;5070792;28;20261;-68
2021/07/29 01:12:13;;;;;;;3.97;3.40;;;;;;;18.81;63.78;96540.56;5062229;28;20206;-69
2021/07/29 01:14:39;;;;;;;5.00;3.80;;;;;;;18.82;63.88;96539.53;5070390;28;20232;-70
2021/07/29 01:17:05;;;;;;;3.80;3.50;;;;;;;18.80;64.21;96538.94;5069953;28;20591;-68
2021/07/29 01:19:30;;;;;;;7.70;3.53;;;;;;;18.35;65.90;96539.22;5062063;28;20205;-67
2021/07/29 01:21:57;;;;;;;3.90;3.57;;;;;;;18.25;66.72;96537.03;5070835;28;20205;-69
2021/07/29 01:24:24;;;;;;;6.50;4.10;;;;;;;18.46;65.37;96533.19;5070308;28;20178;-68
2021/07/29 01:26:49;;;;;;;5.03;3.80;;;;;;;18.58;64.84;96528.78;5063789;28;20787;-68
2021/07/29 01:29:15;;;;;;;7.50;4.13;;;;;;;18.60;64.72;96527.75;5059039;28;20418;-69
2021/07/29 01:31:40;;;;;;;4.37;3.40;;;;;;;18.64;64.47;96534.25;5071030;28;20205;-68
2021/07/29 01:34:06;;;;;;;3.57;3.17;;;;;;;18.68;64.33;96535.41;5070462;28;20513;-69
2021/07/29 01:36:32;;;;;;;4.70;4.20;;;;;;;18.67;64.30;96528.47;5070567;28;20174;-68
2021/07/29 01:38:58;;;;;;;5.80;3.90;;;;;;;18.70;64.36;96522.72;5070273;28;20186;-68
2021/07/29 01:41:23;;;;;;;3.83;3.53;;;;;;;18.69;64.17;96521.09;5070543;28;20661;-68
2021/07/29 01:43:49;;;;;;;4.07;3.67;;;;;;;18.65;64.30;96520.75;5070136;28;20616;-69
2021/07/29 01:46:15;;;;;;;4.60;3.63;;;;;;;18.63;64.59;96524.66;5070448;28;20182;-69
2021/07/29 01:48:40;;;;;;;4.00;3.60;;;;;;;18.55;65.06;96520.44;5070441;28;20185;-68
2021/07/29 01:51:06;;;;;;;4.20;3.90;;;;;;;18.64;64.60;96523.63;5070562;28;20187;-68
2021/07/29 01:53:31;;;;;;;5.27;3.70;;;;;;;18.65;64.32;96520.75;5070103;28;20568;-68
2021/07/29 01:55:57;;;;;;;16.63;4.07;;;;;;;18.64;64.25;96524.44;5070412;28;20269;-69
2021/07/29 01:58:23;;;;;;;6.23;3.80;;;;;;;18.61;64.70;96524.84;5066418;28;20182;-68
2021/07/29 02:00:49;;;;;;;3.90;3.60;;;;;;;18.53;64.87;96518.00;5069165;28;20202;-68
2021/07/29 02:03:15;;;;;;;3.97;3.57;;;;;;;18.51;65.00;96516.59;5071374;28;20226;-68
2021/07/29 02:05:41;;;;;;;5.33;3.60;;;;;;;18.51;64.96;96517.44;5073770;28;20439;-68
2021/07/29 02:08:06;;;;;;;8.80;4.20;;;;;;;18.47;65.18;96518.88;5073800;28;20190;-68
2021/07/29 02:10:32;;;;;;;9.33;4.10;;;;;;;18.47;65.16;96518.06;5069515;28;20178;-68
2021/07/29 02:12:58;;;;;;;4.00;3.60;;;;;;;18.39;65.59;96513.88;5073579;28;20714;-68
2021/07/29 02:15:25;;;;;;;5.40;4.10;;;;;;;18.44;65.63;96524.63;5073372;28;20204;-70
2021/07/29 02:18:00;;;;;;;4.53;3.57;;;;;;;18.40;65.93;96518.94;5073793;28;20431;-68
2021/07/29 02:20:26;;;;;;;4.33;3.80;;;;;;;18.27;66.52;96522.53;5073314;28;20464;-68
2021/07/29 02:22:52;;;;;;;4.60;4.07;;;;;;;18.22;66.86;96524.22;5073366;28;20476;-68
2021/07/29 02:25:18;;;;;;;4.30;3.90;;;;;;;18.13;67.25;96523.69;5072987;28;20936;-68
2021/07/29 02:27:44;;;;;;;5.43;4.93;;;;;;;18.13;67.11;96526.34;5063538;28;20232;-67
2021/07/29 02:30:10;;;;;;;4.43;3.90;;;;;;;18.30;66.44;96516.00;5073346;28;20178;-68
2021/07/29 02:32:35;;;;;;;5.80;4.17;;;;;;;18.19;67.18;96522.00;5073302;28;20194;-69
2021/07/29 02:35:01;;;;;;;4.97;4.43;;;;;;;18.21;66.86;96526.06;5072888;28;20431;-70
2021/07/29 02:37:26;;;;;;;5.47;4.50;;;;;;;18.15;67.37;96526.91;5055230;28;20200;-68
2021/07/29 02:39:52;;;;;;;7.70;4.50;;;;;;;18.31;66.78;96519.44;5072753;28;20340;-68
2021/07/29 02:42:18;;;;;;;6.93;5.60;;;;;;;17.87;68.84;96533.44;5070303;28;20664;-68
2021/07/29 02:44:43;;;;;;;5.33;4.83;;;;;;;18.22;67.49;96529.50;5067157;28;20205;-68
2021/07/29 02:47:09;;;;;;;4.63;4.23;;;;;;;18.36;66.67;96532.88;5071887;28;20277;-67
2021/07/29 02:49:35;;;;;;;6.63;4.53;;;;;;;18.39;66.13;96532.44;5073246;28;20174;-68
2021/07/29 02:52:01;;;;;;;5.23;4.40;;;;;;;18.47;65.83;96529.50;5072820;28;20199;-67
2021/07/29 02:54:27;;;;;;;6.40;4.90;;;;;;;18.42;65.84;96532.81;5072598;28;20566;-68
2021/07/29 02:56:52;;;;;;;7.60;4.53;;;;;;;18.37;66.12;96539.81;5064628;28;20976;-68
2021/07/29 02:59:18;;;;;;;8.10;4.83;;;;;;;18.39;65.93;96540.41;5070816;28;20248;-67
2021/07/29 03:01:44;;;;;;;7.77;4.60;;;;;;;17.95;68.04;96537.69;5072789;28;20194;-68
2021/07/29 03:04:09;;;;;;;5.27;4.50;;;;;;;18.05;68.12;96545.16;5070882;28;20787;-68
2021/07/29 03:06:35;;;;;;;5.70;4.90;;;;;;;18.25;67.11;96537.88;5072759;28;20501;-68
2021/07/29 03:09:02;;;;;;;7.13;4.30;;;;;;;18.37;66.29;96539.81;5072784;28;20186;-67
2021/07/29 03:11:27;;;;;;;5.47;4.80;;;;;;;18.27;66.62;96533.13;5056112;28;20217;-67
2021/07/29 03:13:53;;;;;;;5.30;4.77;;;;;;;18.37;66.14;96542.47;5072415;28;20436;-70
2021/07/29 03:16:19;;;;;;;4.93;4.53;;;;;;;18.24;66.76;96530.94;5073108;28;20588;-67
2021/07/29 03:18:45;;;;;;;6.83;4.97;;;;;;;18.33;66.47;96535.97;5072993;28;20179;-68
2021/07/29 03:21:10;;;;;;;5.60;5.10;;;;;;;18.18;67.13;96536.31;5072324;28;20202;-68
2021/07/29 03:23:36;;;;;;;7.33;5.00;;;;;;;18.33;66.52;96535.97;5071773;28;20751;-69
2021/07/29 03:26:02;;;;;;;5.17;4.43;;;;;;;18.30;66.46;96536.38;5063561;28;20185;-69
2021/07/29 03:28:28;;;;;;;5.87;5.17;;;;;;;18.17;66.76;96532.81;5062055;28;20657;-68
2021/07/29 03:30:53;;;;;;;6.27;5.20;;;;;;;18.24;66.75;96538.91;5070934;28;20417;-68
2021/07/29 03:33:19;;;;;;;6.23;4.93;;;;;;;18.27;66.53;96530.47;5070475;28;20720;-68
2021/07/29 03:35:45;;;;;;;5.13;4.70;;;;;;;18.28;66.34;96539.25;5071382;28;20182;-68
2021/07/29 03:38:11;;;;;;;5.63;4.77;;;;;;;18.29;66.40;96537.41;5053466;28;20198;-68
2021/07/29 03:40:37;;;;;;;5.40;4.50;;;;;;;18.27;66.30;96537.63;5058159;28;20746;-67
2021/07/29 03:43:04;;;;;;;8.90;5.10;;;;;;;18.22;66.44;96543.59;5068427;28;20467;-67
2021/07/29 03:45:31;;;;;;;8.07;5.47;;;;;;;18.26;66.21;96539.50;5064131;28;20413;-68
2021/07/29 03:47:57;;;;;;;11.50;5.20;;;;;;;18.37;66.00;96539.81;5053485;28;20445;-67
2021/07/29 03:50:23;;;;;;;6.70;5.67;;;;;;;18.34;65.88;96545.53;5066754;28;20409;-67
2021/07/29 03:52:48;;;;;;;10.63;5.03;;;;;;;18.36;65.91;96544.28;5051739;28;20433;-67
2021/07/29 03:55:14;;;;;;;7.47;4.80;;;;;;;18.38;66.01;96541.44;5051427;28;20661;-68
2021/07/29 03:57:40;;;;;;;7.20;5.97;;;;;;;18.29;65.66;96543.53;5055657;28;20369;-68
2021/07/29 04:00:06;;;;;;;5.73;4.60;;;;;;;18.37;65.54;96550.41;5069424;28;20697;-68
2021/07/29 04:02:32;;;;;;;9.70;5.10;;;;;;;18.34;65.69;96546.34;5051450;28;20208;-68
2021/07/29 04:04:57;;;;;;;10.73;4.97;;;;;;;18.40;65.32;96549.94;5049611;28;20413;-68
2021/07/29 04:07:23;;;;;;;11.67;5.43;;;;;;;18.33;65.58;96559.81;5059677;28;20427;-68
2021/07/29 04:09:49;;;;;;;6.90;5.00;;;;;;;18.41;65.40;96555.06;5056700;28;20178;-68
2021/07/29 04:12:15;;;;;;;5.23;4.73;;;;;;;18.43;65.21;96554.84;5059263;28;20202;-67
2021/07/29 04:14:41;;;;;;;6.83;4.87;;;;;;;18.45;65.10;96554.63;5049548;28;20513;-68
2021/07/29 04:17:07;;;;;;;6.80;4.73;;;;;;;18.43;65.25;96560.13;5050049;28;20220;-67
2021/07/29 04:19:33;;;;;;;6.87;4.20;;;;;;;18.48;64.86;96562.97;5050629;28;20207;-68
2021/07/29 04:21:59;;;;;;;6.80;4.07;;;;;;;18.52;64.79;96563.31;5051211;28;20575;-67
2021/07/29 04:24:29;;;;;;;5.53;4.57;;;;;;;18.57;64.65;96564.28;5058933;28;20425;-68
2021/07/29 04:26:58;;;;;;;6.20;4.40;;;;;;;18.49;64.63;96575.19;5050640;28;20453;-68
2021/07/29 04:29:25;;;;;;;6.17;4.37;;;;;;;18.51;64.79;96565.19;5051159;28;20928;-68
2021/07/29 04:31:52;;;;;;;8.73;4.70;;;;;;;18.58;64.50;96573.88;5059664;28;21048;-69
2021/07/29 04:34:17;;;;;;;5.20;4.70;;;;;;;18.60;64.69;96567.53;5052274;28;21155;-69
2021/07/29 04:36:43;;;;;;;8.93;4.80;;;;;;;18.65;64.34;96567.72;5051751;28;20422;-68
2021/07/29 04:39:09;;;;;;;5.63;4.63;;;;;;;18.69;64.25;96568.88;5050979;28;20197;-67
2021/07/29 04:41:41;;;;;;;5.10;4.57;;;;;;;18.67;64.29;96565.63;5051271;28;20183;-67
2021/07/29 04:44:08;;;;;;;6.27;4.77;;;;;;;18.71;64.20;96569.47;5050442;28;20620;-68
2021/07/29 04:46:37;;;;;;;5.10;4.60;;;;;;;18.70;64.18;96575.81;5051531;28;20444;-68
2021/07/29 04:49:04;;;;;;;5.40;4.43;;;;;;;18.73;64.21;96570.06;5047362;28;20439;-68
2021/07/29 04:51:30;;;;;;;5.53;4.77;;;;;;;18.80;63.91;96564.69;5055265;28;20432;-68
2021/07/29 04:53:55;;;;;;;8.83;4.10;;;;;;;18.76;64.16;96563.50;5046385;28;20425;-68
2021/07/29 04:56:21;;;;;;;5.90;4.43;;;;;;;18.88;63.62;96565.22;5042932;28;20210;-67
2021/07/29 04:58:49;;;;;;;4.93;4.43;;;;;;;18.91;63.38;96571.91;5051240;28;20202;-67
2021/07/29 05:01:15;;;;;;;6.40;4.47;;;;;;;18.84;63.61;96574.66;5058682;28;20203;-67
2021/07/29 05:03:41;;;;;;;7.43;4.27;;;;;;;18.89;63.49;96573.97;5050172;28;20982;-68
2021/07/29 05:06:07;;;;;;;5.00;4.00;;;;;;;18.98;63.18;96569.22;5051433;28;20430;-67
2021/07/29 05:08:32;;;;;;;4.30;3.90;;;;;;;19.03;63.10;96569.34;5066281;28;20175;-67
2021/07/29 05:10:58;;;;;;;4.60;3.87;;;;;;;19.15;62.74;96569.44;5050517;28;20308;-67
2021/07/29 05:13:23;;;;;;;5.50;5.00;;;;;;;19.11;62.77;96570.91;5050063;28;20191;-69
2021/07/29 05:15:49;;;;;;;5.70;4.30;;;;;;;19.34;62.32;96570.22;5053077;28;20186;-68
2021/07/29 05:18:14;;;;;;;7.63;4.33;;;;;;;19.41;62.25;96575.44;5049035;28;20183;-69
2021/07/29 05:20:40;;;;;;;4.13;3.53;;;;;;;19.52;61.54;96571.25;5050572;28;20202;-68
2021/07/29 05:23:05;;;;;;;5.03;4.00;;;;;;;19.61;61.35;96569.88;5050420;28;20608;-67
2021/07/29 05:25:35;;;;;;;5.57;4.03;;;;;;;19.84;61.13;96569.16;5050480;28;20171;-67
2021/07/29 05:28:00;;;;;;;3.90;3.17;;;;;;;20.08;60.42;96558.59;5049209;28;20222;-68
2021/07/29 05:30:26;;;;;;;3.60;3.30;;;;;;;19.92;60.73;96570.69;5050262;28;20893;-67
2021/07/29 05:32:52;;;;;;;3.57;3.27;;;;;;;20.39;59.37;96556.66;5050612;28;20199;-68
2021/07/29 05:35:17;;;;;;;4.83;3.70;;;;;;;20.49;59.20;96556.06;5050368;28;20179;-68
2021/07/29 05:37:43;;;;;;;3.80;3.50;;;;;;;20.34;59.38;96552.03;5050972;28;20208;-68
2021/07/29 05:40:09;;;;;;;5.97;3.73;;;;;;;20.82;58.15;96542.19;5054333;28;20224;-67
2021/07/29 05:42:35;;;;;;;4.53;3.53;;;;;;;21.11;57.66;96560.06;5054843;28;20755;-67
2021/07/29 05:45:02;;;;;;;5.00;3.60;;;;;;;21.09;57.72;96562.16;5054498;28;20788;-67
2021/07/29 05:47:28;;;;;;;3.77;3.47;;;;;;;21.14;57.62;96554.28;5041154;28;20430;-69
2021/07/29 05:49:53;;;;;;;3.90;3.30;;;;;;;21.44;56.98;96561.25;5053872;28;20938;-68
2021/07/29 05:52:19;;;;;;;3.33;3.03;;;;;;;21.26;57.52;96560.41;5058668;28;20288;-68
2021/07/29 05:54:45;;;;;;;5.10;3.50;;;;;;;21.78;56.04;96566.72;5059291;28;20179;-68
2021/07/29 05:57:10;;;;;;;3.57;3.27;;;;;;;21.33;56.94;96570.91;5053191;28;20266;-68
2021/07/29 05:59:36;;;;;;;3.83;3.37;;;;;;;20.91;57.92;96566.63;5062371;28;20191;-69
2021/07/29 06:02:01;;;;;;;4.50;3.27;;;;;;;21.48;56.71;96571.19;5074048;28;20229;-68
2021/07/29 06:04:27;;;;;;;3.77;2.80;;;;;;;21.92;55.11;96564.53;5073994;28;20671;-68
2021/07/29 06:06:53;;;;;;;3.30;3.00;;;;;;;21.72;55.46;96568.47;5073667;28;20183;-68
2021/07/29 06:09:19;;;;;;;3.50;3.20;;;;;;;21.60;56.23;96571.19;5073293;28;20435;-69
2021/07/29 06:11:44;;;;;;;2.93;2.70;;;;;;;21.90;55.08;96577.28;5074133;28;20202;-68
2021/07/29 06:14:10;;;;;;;3.13;2.93;;;;;;;22.21;54.23;96575.94;5072451;28;20183;-69
2021/07/29 06:16:36;;;;;;;4.97;3.33;;;;;;;21.99;54.80;96572.38;5073265;28;20598;-69
2021/07/29 06:19:09;;;;;;;4.80;3.00;;;;;;;21.85;55.07;96570.03;5072241;28;20189;-71
2021/07/29 06:21:36;;;;;;;3.33;3.00;;;;;;;21.57;55.49;96574.28;5073679;28;20543;-69
2021/07/29 06:24:03;;;;;;;7.50;3.10;;;;;;;21.22;56.88;96579.75;5072199;28;20830;-69
2021/07/29 06:26:29;;;;;;;4.80;3.80;;;;;;;21.71;55.98;96574.03;5073436;28;20495;-67
2021/07/29 06:28:54;;;;;;;3.30;3.00;;;;;;;21.78;55.31;96569.38;5068820;28;20512;-70
2021/07/29 06:31:20;;;;;;;4.53;4.10;;;;;;;21.85;55.46;96570.03;5064491;28;20187;-68
2021/07/29 06:33:46;;;;;;;4.23;3.20;;;;;;;22.55;53.66;96575.16;5071415;28;20204;-68
2021/07/29 06:36:12;;;;;;;3.50;3.20;;;;;;;21.57;55.98;96578.81;5064952;28;20201;-72
2021/07/29 06:38:38;;;;;;;4.03;3.63;;;;;;;22.13;54.83;96576.38;5072125;28;20273;-69
2021/07/29 06:41:05;;;;;;;14.10;4.93;;;;;;;22.30;54.42;96581.69;5071609;28;20217;-68
2021/07/29 06:43:31;;;;;;;5.23;3.50;;;;;;;22.27;54.61;96581.38;5071507;28;20440;-68
2021/07/29 06:46:02;;;;;;;12.53;6.50;;;;;;;22.31;54.27;96580.66;5072913;28;20417;-69
2021/07/29 06:48:27;;;;;;;9.33;4.40;;;;;;;22.38;54.00;96583.16;5072665;28;20645;-68
2021/07/29 06:50:53;;;;;;;4.80;3.60;;;;;;;22.06;55.23;96586.38;5073215;28;20460;-70
2021/07/29 06:53:18;;;;;;;3.60;2.80;;;;;;;21.96;55.08;96591.53;5072038;28;20810;-70
2021/07/29 06:55:44;;;;;;;5.20;3.00;;;;;;;22.27;54.13;96592.06;5072737;28;20262;-69
2021/07/29 06:58:09;;;;;;;5.77;3.90;;;;;;;22.59;53.62;96594.16;5068019;28;20187;-69
2021/07/29 07:00:35;;;;;;;7.63;3.20;;;;;;;22.90;52.30;96595.41;5072572;28;20649;-70
2021/07/29 07:03:01;;;;;;;3.87;2.63;;;;;;;22.03;54.37;96589.53;5063969;28;20729;-69
2021/07/29 07:05:26;;;;;;;4.20;3.30;;;;;;;22.39;53.56;96596.25;5070347;28;20195;-69
2021/07/29 07:07:52;;;;;;;5.53;3.10;;;;;;;22.82;52.19;96590.50;5068974;28;20189;-69
2021/07/29 07:10:17;;;;;;;2.90;2.70;;;;;;;23.06;51.25;96598.28;5071936;28;20174;-69
2021/07/29 07:12:43;;;;;;;3.43;2.93;;;;;;;23.23;50.52;96598.25;5072485;28;20699;-68
2021/07/29 07:15:09;;;;;;;6.90;3.17;;;;;;;23.72;49.67;96594.81;5071759;28;20178;-67
2021/07/29 07:17:35;;;;;;;3.33;3.03;;;;;;;23.73;49.28;96597.22;5072314;28;20179;-68
2021/07/29 07:20:01;;;;;;;2.83;2.43;;;;;;;23.80;49.57;96596.22;5071526;28;20448;-69
2021/07/29 07:22:27;;;;;;;4.20;3.03;;;;;;;23.86;48.38;96597.88;5073590;28;20206;-68
2021/07/29 07:24:52;;;;;;;5.43;3.37;;;;;;;23.28;49.09;96593.78;5073733;28;20421;-69
2021/07/29 07:27:18;;;;;;;3.27;2.97;;;;;;;23.59;48.41;96596.81;5072560;28;20551;-69
2021/07/29 07:29:44;;;;;;;4.03;2.97;;;;;;;23.66;47.94;96595.81;5067334;28;20190;-68
2021/07/29 07:32:10;;;;;;;4.53;3.10;;;;;;;22.48;49.87;96590.56;5071893;28;20212;-68
2021/07/29 07:34:35;;;;;;;6.40;3.40;;;;;;;23.82;46.77;96597.59;5072054;28;20256;-68
2021/07/29 07:37:01;;;;;;;2.77;2.50;;;;;;;24.07;46.21;96597.03;5071924;28;20184;-69
2021/07/29 07:39:27;;;;;;;3.70;3.27;;;;;;;24.45;45.71;96599.75;5062996;28;20198;-70
2021/07/29 07:41:55;;;;;;;4.43;3.33;;;;;;;24.77;44.41;96582.84;5072166;28;20444;-67
2021/07/29 07:44:21;;;;;;;3.63;3.33;;;;;;;24.52;44.02;96589.63;5071582;28;20593;-68
2021/07/29 07:46:46;;;;;;;3.87;3.10;;;;;;;24.23;44.48;96599.84;5071553;28;20421;-69
2021/07/29 07:49:12;;;;;;;6.37;3.10;;;;;;;24.07;44.93;96591.69;5071208;28;20679;-68
2021/07/29 07:51:38;;;;;;;4.47;3.40;;;;;;;23.77;45.48;96598.34;5071366;28;20185;-69
2021/07/29 07:54:04;;;;;;;3.73;3.33;;;;;;;23.18;47.53;96593.63;5069345;28;20742;-69
2021/07/29 07:56:29;;;;;;;7.30;3.90;;;;;;;23.35;47.27;96598.94;5071810;28;20416;-68
2021/07/29 07:58:55;;;;;;;8.00;3.33;;;;;;;22.57;49.22;96596.25;5063665;28;20182;-68
2021/07/29 08:01:21;;;;;;;5.73;3.80;;;;;;;23.39;47.98;96591.22;5070571;28;20210;-69
2021/07/29 08:03:47;;;;;;;3.47;3.17;;;;;;;23.61;47.30;96594.72;5071461;28;20298;-69
2021/07/29 08:06:13;;;;;;;4.80;3.80;;;;;;;23.43;47.58;96598.53;5061644;28;20519;-68
2021/07/29 08:08:39;;;;;;;6.63;3.27;;;;;;;23.83;47.16;96593.03;5064644;28;20417;-68
2021/07/29 08:11:05;;;;;;;4.13;3.00;;;;;;;23.20;48.35;96594.22;5066711;28;20781;-69
2021/07/29 08:13:30;;;;;;;7.83;3.27;;;;;;;23.24;48.23;96595.34;5063200;28;20202;-68
2021/07/29 08:15:56;;;;;;;4.30;3.73;;;;;;;22.55;48.74;96589.34;5071459;28;20236;-69
2021/07/29 08:18:22;;;;;;;4.40;3.30;;;;;;;23.34;46.64;96588.50;5071106;28;20567;-68
2021/07/29 08:20:47;;;;;;;3.97;3.10;;;;;;;23.75;45.43;96589.75;5070803;28;20198;-68
2021/07/29 08:23:13;;;;;;;4.73;3.63;;;;;;;23.22;45.45;96585.94;5069573;28;20202;-66
2021/07/29 08:25:39;;;;;;;4.10;3.70;;;;;;;22.79;46.61;96582.97;5071175;28;20174;-69
2021/07/29 08:28:04;;;;;;;3.77;3.23;;;;;;;22.57;47.41;96590.91;5065336;28;20186;-70
2021/07/29 08:30:30;;;;;;;4.90;3.07;;;;;;;23.04;46.12;96589.72;5071485;28;20170;-70
2021/07/29 08:32:56;;;;;;;5.13;3.23;;;;;;;23.28;45.88;96584.97;5071272;28;20197;-72
2021/07/29 08:35:21;;;;;;;3.70;3.30;;;;;;;23.26;45.32;96585.19;5071251;28;20213;-69
2021/07/29 08:37:50;;;;;;;7.97;3.60;;;;;;;24.12;44.10;96587.44;5062580;28;20715;-69
2021/07/29 08:40:17;;;;;;;5.73;3.47;;;;;;;23.93;44.26;96585.13;5070516;28;20202;-70
2021/07/29 08:42:44;;;;;;;6.53;3.80;;;;;;;25.05;42.18;96577.38;5071012;28;20468;-68
2021/07/29 08:45:10;;;;;;;4.13;3.73;;;;;;;24.33;42.70;96589.22;5070604;28;20420;-68
2021/07/29 08:47:36;;;;;;;15.47;4.20;;;;;;;24.28;41.68;96589.19;5071304;28;20405;-68
2021/07/29 08:50:05;;;;;;;3.80;3.40;;;;;;;23.94;42.20;96594.78;5064508;28;20420;-70
2021/07/29 08:52:31;;;;;;;5.63;3.57;;;;;;;24.48;41.55;96582.38;5066761;28;20199;-70
2021/07/29 08:54:57;;;;;;;5.87;3.40;;;;;;;24.19;42.20;96586.19;5067196;28;20430;-67
2021/07/29 08:57:34;;;;;;;3.43;3.13;;;;;;;24.51;41.97;96595.25;5071059;28;20416;-70
2021/07/29 09:00:01;;;;;;;4.70;3.80;;;;;;;25.20;40.17;96582.81;5066217;28;20198;-69
2021/07/29 09:02:28;;;;;;;3.77;3.20;;;;;;;25.42;40.00;96579.97;5054580;28;20444;-68
2021/07/29 09:05:10;;;;;;;4.10;3.70;;;;;;;25.41;38.69;96578.34;5069951;28;20417;-68
2021/07/29 09:07:36;;;;;;;5.40;3.13;;;;;;;25.03;39.01;96580.31;5056927;28;20862;-71
2021/07/29 09:10:04;;;;;;;3.93;3.47;;;;;;;24.58;39.86;96579.75;5070347;28;20423;-69
2021/07/29 09:12:30;;;;;;;6.00;4.17;;;;;;;25.04;38.76;96579.25;5071139;28;20198;-67
2021/07/29 09:14:56;;;;;;;4.10;3.70;;;;;;;25.41;38.38;96580.25;5071521;28;20895;-68
2021/07/29 09:17:22;;;;;;;4.13;3.73;;;;;;;25.64;37.77;96570.09;5074521;28;20424;-68
2021/07/29 09:19:56;;;;;;;4.00;3.60;;;;;;;24.86;38.60;96596.56;5074160;28;20210;-68
2021/07/29 09:22:29;;;;;;;4.30;3.90;;;;;;;25.15;38.66;96585.47;5073440;28;20472;-68
2021/07/29 09:25:05;;;;;;;3.70;3.30;;;;;;;25.63;38.03;96581.91;5073339;28;20467;-68
2021/07/29 09:27:51;;;;;;;5.77;3.80;;;;;;;24.96;39.26;96582.44;5060134;28;20420;-67
2021/07/29 09:30:23;;;;;;;5.90;3.10;;;;;;;26.08;37.46;96577.69;5071883;28;20432;-68
2021/07/29 09:33:17;;;;;;;4.57;3.47;;;;;;;25.82;38.54;96576.84;5074827;28;20444;-68
2021/07/29 09:35:50;;;;;;;4.13;3.30;;;;;;;26.29;37.34;96583.88;5061591;28;20433;-67
2021/07/29 09:38:26;;;;;;;4.60;3.20;;;;;;;25.98;37.07;96591.09;5072953;28;20856;-68
2021/07/29 09:41:02;;;;;;;3.60;3.30;;;;;;;26.10;36.48;96577.41;5074570;28;20550;-70
2021/07/29 09:43:30;;;;;;;5.97;3.30;;;;;;;25.54;38.04;96585.09;5058080;28;20544;-68
2021/07/29 09:46:00;;;;;;;5.70;3.40;;;;;;;26.17;37.31;96586.84;5074531;28;20492;-69
2021/07/29 09:48:26;;;;;;;5.80;3.63;;;;;;;25.38;38.82;96581.56;5074270;28;20423;-70
2021/07/29 09:50:58;;;;;;;4.10;3.00;;;;;;;25.28;39.45;96586.84;5073417;28;20546;-68
2021/07/29 09:53:23;;;;;;;3.83;3.53;;;;;;;25.01;38.68;96582.47;5074891;28;20238;-67
2021/07/29 09:55:49;;;;;;;10.83;3.60;;;;;;;24.85;39.74;96573.53;5071589;28;20549;-69
2021/07/29 09:58:15;;;;;;;5.77;3.50;;;;;;;25.19;39.58;96566.97;5035305;28;20190;-69
2021/07/29 10:00:41;;;;;;;3.70;3.27;;;;;;;25.52;38.40;96576.50;5073003;28;20259;-69
2021/07/29 10:03:08;;;;;;;4.97;3.57;;;;;;;25.58;38.49;96570.09;5073578;28;20298;-69
2021/07/29 10:05:44;;;;;;;3.70;3.40;;;;;;;25.23;39.72;96578.81;5074098;28;20335;-69
2021/07/29 10:08:15;;;;;;;4.20;3.37;;;;;;;24.91;39.60;96572.50;5073185;28;20514;-68
2021/07/29 10:10:44;;;;;;;4.00;3.63;;;;;;;24.83;39.36;96560.41;5072841;28;20405;-68
2021/07/29 10:13:10;;;;;;;7.23;3.60;;;;;;;25.13;38.84;96566.97;5072651;28;20498;-69
2021/07/29 10:15:46;;;;;;;5.87;4.03;;;;;;;24.94;38.89;96555.91;5072048;28;20528;-69
2021/07/29 10:18:13;;;;;;;5.50;3.50;;;;;;;25.12;39.06;96554.66;5073052;28;20416;-69
2021/07/29 10:20:40;;;;;;;10.27;3.70;;;;;;;25.86;37.91;96543.84;5069770;28;20495;-68
2021/07/29 10:23:15;;;;;;;4.77;4.03;;;;;;;25.91;36.61;96546.53;5071825;28;20449;-70
2021/07/29 10:25:53;;;;;;;4.30;3.63;;;;;;;25.71;36.55;96555.38;5067223;28;20424;-69
2021/07/29 10:28:26;;;;;;;5.30;4.40;;;;;;;26.30;35.44;96545.22;5068747;28;20980;-68
2021/07/29 10:30:53;;;;;;;4.30;3.90;;;;;;;26.98;35.32;96544.03;5073912;28;20417;-68
2021/07/29 10:33:18;;;;;;;4.10;3.40;;;;;;;26.55;35.65;96558.91;5073595;28;20491;-67
2021/07/29 10:35:44;;;;;;;4.80;3.90;;;;;;;25.52;36.87;96554.28;5072827;28;20428;-68
2021/07/29 10:38:10;;;;;;;8.77;4.33;;;;;;;25.73;37.11;96560.47;5065398;28;20191;-69
2021/07/29 10:40:40;;;;;;;5.20;4.23;;;;;;;25.81;37.15;96551.91;5072329;28;20206;-69
2021/07/29 10:43:24;;;;;;;5.17;4.10;;;;;;;26.58;36.43;96555.66;5055616;28;20206;-68
2021/07/29 10:45:54;;;;;;;5.53;4.30;;;;;;;27.33;34.43;96543.34;5074372;28;20789;-68
2021/07/29 10:48:46;;;;;;;7.13;5.50;;;;;;;26.96;35.07;96537.31;5073607;28;20944;-69
2021/07/29 10:51:25;;;;;;;5.77;3.90;;;;;;;27.01;35.53;96542.66;5069897;28;20439;-70
2021/07/29 10:53:57;;;;;;;6.23;4.60;;;;;;;27.02;35.14;96552.34;5073265;28;20798;-69
2021/07/29 10:56:26;;;;;;;4.77;4.30;;;;;;;26.63;35.24;96544.91;5072225;28;20433;-69
2021/07/29 10:58:53;;;;;;;7.03;4.67;;;;;;;26.30;35.98;96537.16;5069563;28;21067;-68
2021/07/29 11:01:20;;;;;;;8.63;4.70;;;;;;;26.64;35.29;96538.44;5073732;28;20475;-68
2021/07/29 11:03:51;;;;;;;8.33;4.30;;;;;;;26.28;35.53;96533.94;5071986;28;20466;-68
2021/07/29 11:06:41;;;;;;;6.90;5.20;;;;;;;26.02;35.67;96543.84;5056662;28;20902;-68
2021/07/29 11:09:17;;;;;;;4.50;3.93;;;;;;;25.52;36.79;96540.84;5073490;28;20830;-68
2021/07/29 11:11:43;;;;;;;7.63;3.90;;;;;;;26.01;36.16;96542.25;5069578;28;20412;-69
2021/07/29 11:14:10;;;;;;;4.67;4.00;;;;;;;26.54;36.10;96531.22;5073104;28;20428;-69
2021/07/29 11:16:36;;;;;;;13.13;4.00;;;;;;;27.10;34.68;96530.25;5072440;28;20462;-67
2021/07/29 11:19:03;;;;;;;4.87;3.70;;;;;;;26.83;35.45;96528.78;5072753;28;20443;-70
2021/07/29 11:21:29;;;;;;;4.50;3.57;;;;;;;26.96;35.28;96526.56;5061488;28;20450;-69
2021/07/29 11:23:55;;;;;;;4.77;4.03;;;;;;;26.94;34.35;96526.03;5072071;28;20959;-68
2021/07/29 11:26:21;;;;;;;6.10;4.57;;;;;;;26.97;34.89;96522.78;5077876;28;20438;-68
2021/07/29 11:29:06;;;;;;;4.33;3.80;;;;;;;26.07;35.54;96527.75;5071259;28;20174;-69
2021/07/29 11:31:33;;;;;;;4.23;3.80;;;;;;;26.77;34.21;96508.31;5066247;28;20178;-68
2021/07/29 11:33:59;;;;;;;5.13;3.23;;;;;;;26.46;35.07;96519.16;5072313;28;20421;-69
2021/07/29 11:36:25;;;;;;;4.50;3.63;;;;;;;26.95;34.21;96508.84;5073197;28;20504;-68